Metar Cercanos

 

LEPA - Palma De Mallorc, Spain
Distance from station: ONO 38km
Actualización: Fri, 23-Feb-2024 8:30pm CET
Despejado
Despejado
 Viento del O
Viento: O 17 km/h
Temperatura: 15°C
Rocío: 2°C
Humedad: 42%
Barómetro: 1008 hPa
Resumen: Despejado
Visibility: greater than 10 km
2024/02/23 19:30 LEPA 231930Z 28009KT 250V310 CAVOK 15/02 Q1008 NOSIG
LEMH - Mahon/Menorca Is, Spain
Distance from station: ENE 105km
Actualización: Fri, 23-Feb-2024 8:30pm CET
Despejado
Despejado
 Viento del SO
Viento: SO 6 km/h
Temperatura: 11°C
Rocío: 2°C
Humedad: 54%
Barómetro: 1009 hPa
Resumen: Despejado
Visibility: greater than 10 km
2024/02/23 19:30 LEMH 231930Z 22003KT 180V260 CAVOK 11/02 Q1009
 
LEIB - Ibiza/Es Codola, Spain
Distance from station: OSO 165km
Actualización: Fri, 23-Feb-2024 8:30pm CET
Despejado
Despejado
 Viento del O
Viento: O 26 km/h
Temperatura: 15°C
Rocío: 1°C
Humedad: 39%
Barómetro: 1010 hPa
Resumen: Despejado
Visibility: greater than 10 km
2024/02/23 19:30 LEIB 231930Z 27014KT 240V320 CAVOK 15/01 Q1010 NOSIG
LEBL - Barcelona Airpor, Spain
Distance from station: NNO 225km
Actualización: Fri, 23-Feb-2024 8:30pm CET
Despejado
Despejado
 Viento del O
Viento: O 19 km/h
Temperatura: 12°C
Rocío: -2°C
Humedad: 38%
Barómetro: 1006 hPa
Resumen: Despejado
Visibility: greater than 10 km
2024/02/23 19:30 LEBL 231930Z 26010KT 240V300 CAVOK 12/M02 Q1006 NOSIG
 
LEVC - Valencia (civ/Mi, Spain
Distance from station: NO 188km
Actualización: Fri, 23-Feb-2024 8:30pm CET
Despejado
Despejado
 Viento del O
Viento: O 15 km/h
Temperatura: 13°C
Rocío: -1°C
Humedad: 38%
Barómetro: 1010 hPa
Resumen: Despejado
Visibility: greater than 10 km
2024/02/23 19:30 LEVC 231930Z 26008KT CAVOK 13/M01 Q1010 NOSIG
LEGE - Gerona/Costa Bra, Spain
Distance from station: N 276km
Actualización: Fri, 23-Feb-2024 8:30pm CET
Few Clouds
Few Clouds
 Viento del O
Viento: O 4 km/h
Temperatura: 6°C
Rocío: 3°C
Humedad: 81%
Barómetro: 1005 hPa
Clouds: Few Clouds
Visibility: 10 km
Cloud details: Few Clouds 2286 m
2024/02/23 19:30 LEGE 231930Z 27002KT 9999 FEW075 06/03 Q1005
 
LEAL - Alicante/El Alte, Spain
Distance from station: OSO 344km
Actualización: Fri, 23-Feb-2024 8:30pm CET
Despejado
Despejado
 Viento del O
Viento: O 13 km/h
Temperatura: 12°C
Rocío: -2°C
Humedad: 38%
Barómetro: 1011 hPa
Resumen: Despejado
Visibility: greater than 10 km
2024/02/23 19:30 LEAL 231930Z 28007KT CAVOK 12/M02 Q1011 NOSIG
LEAM - Almeria Airport, Spain
Distance from station: SSO 56km
Actualización: Fri, 23-Feb-2024 8:30pm CET
Despejado
Despejado
 Viento del SO
Viento: SO 9 km/h
Temperatura: 16°C
Rocío: 1°C
Humedad: 36%
Barómetro: 1013 hPa
Resumen: Despejado
Visibility: greater than 10 km
2024/02/23 19:30 LEAM 231930Z 23005KT 170V260 CAVOK 16/01 Q1013
 
LEZG - Zaragoza (mil/Ci, Spain
Distance from station: NO 431km
Actualización: Fri, 23-Feb-2024 8:30pm CET
Muy nuboso
Muy nuboso
 Viento del O
Viento: O 24 km/h
Temperatura: 10°C
Sensación frio: 7°C
Rocío: 3°C
Humedad: 62%
Barómetro: 1007 hPa
Clouds: Muy nuboso
Visibility: 10 km
Cloud details: Few Clouds 610 m
Parcialmente nuboso 1676 m
Muy nuboso 2134 m
2024/02/23 19:30 LEZG 231930Z 26013KT 9999 FEW020 SCT055 BKN070 10/03 Q1007
LEMD - Madrid/Barajas, Spain
Distance from station: ONO 234km
Actualización: Fri, 23-Feb-2024 8:30pm CET
Parcialmente nuboso
Parcialmente nuboso
 Viento del OSO
Viento: OSO 17 km/h
Temperatura: 7°C
Sensación frio: 4°C
Rocío: 2°C
Humedad: 71%
Barómetro: 1010 hPa
Clouds: Parcialmente nuboso
Visibility: 10 km
Cloud details: Few Clouds 1829 m
Parcialmente nuboso 2347 m
2024/02/23 19:30 LEMD 231930Z 24009KT 9999 FEW060 SCT077 07/02 Q1010 NOSIG
 
LEGR - Granada Airport, Spain
Distance from station: OSO 62km
Actualización: Fri, 23-Feb-2024 8:30pm CET
Muy nuboso
Muy nuboso
 Viento del varies
Viento: varies 9 km/h
Temperatura: 9°C
Sensación frio: 7°C
Rocío: 5°C
Humedad: 76%
Barómetro: 1016 hPa
Clouds: Muy nuboso
Visibility: 10 km
Cloud details: Muy nuboso 1219 m
2024/02/23 19:30 LEGR 231930Z VRB05KT 9999 BKN040 09/05 Q1016
LEMG - Malaga (civ/Mil), Spain
Distance from station: OSO 227km
Actualización: Fri, 23-Feb-2024 8:30pm CET
Parcialmente nuboso
Parcialmente nuboso
 Viento del ONO
Viento: ONO 7 km/h
Temperatura: 14°C
Rocío: 4°C
Humedad: 51%
Barómetro: 1016 hPa
Clouds: Parcialmente nuboso
Visibility: 10 km
Cloud details: Few Clouds 1829 m
Parcialmente nuboso 2134 m
2024/02/23 19:30 LEMG 231930Z 29004KT 250V320 9999 FEW060 SCT070 14/04 Q1016 NOSIG
 
LEZL - Sevilla (civ/Mil, Spain
Distance from station: S 318km
Actualización: Fri, 23-Feb-2024 8:30pm CET
Despejado
Despejado
 Viento del O
Viento: O 19 km/h
Temperatura: 12°C
Rocío: 8°C
Humedad: 77%
Barómetro: 1018 hPa
Resumen: Despejado
Visibility: greater than 10 km
2024/02/23 19:30 LEZL 231930Z 26010KT CAVOK 12/08 Q1018 NOSIG
LEVT - Vitoria, Spain
Distance from station: NO 226km
Actualización: Fri, 23-Feb-2024 8:30pm CET
Parcialmente nuboso
Parcialmente nuboso
 Viento del S
Viento: S 6 km/h
Temperatura: 2°C
Rocío: 1°C
Humedad: 93%
Barómetro: 1006 hPa
Clouds: Parcialmente nuboso
Visibility: 10 km
Cloud details: Few Clouds 457 m
Parcialmente nuboso 1676 m
2024/02/23 19:30 LEVT 231930Z 17003KT 140V220 9999 FEW015 SCT055 02/01 Q1006
 
LEBB - Bilbao/Sondica, Spain
Distance from station: NNO 235km
Actualización: Fri, 23-Feb-2024 8:30pm CET
Muy nuboso
Muy nuboso
 Viento del ONO
Viento: ONO 7 km/h
Temperatura: 8°C
Sensación frio: 7°C
Rocío: 3°C
Humedad: 71%
Barómetro: 1006 hPa
Clouds: Muy nuboso
Visibility: 10 km
Cloud details: Muy nuboso 1494 m
Muy nuboso 1981 m
2024/02/23 19:30 LEBB 231930Z 29004KT 240V030 9999 BKN049 BKN065 08/03 Q1006 TEMPO 3000 SHRA SCT030TCU
LESO - San Sebastian/Fu, Spain
Distance from station: N 231km
Actualización: Fri, 23-Feb-2024 8:30pm CET
Lluvia débil, Muy nuboso
Lluvia débil, Muy nuboso
 Viento del SSO
Viento: SSO 13 km/h
Temperatura: 7°C
Sensación frio: 5°C
Rocío: 5°C
Humedad: 87%
Barómetro: 1006 hPa
Resumen: Lluvia débil
Clouds: Muy nuboso
Visibility: 8 km
Cloud details: Muy nuboso 610 m
Muy nuboso 1219 m
2024/02/23 19:30 LESO 231930Z 21007KT 180V260 8000 -RA BKN020 BKN040 07/05 Q1006
 
LEVD - Valladolid(Mil/C, Spain
Distance from station: ONO 239km
Actualización: Fri, 23-Feb-2024 8:30pm CET
Few Clouds
Few Clouds
 Viento del O
Viento: O 33 km/h
Temperatura: 3°C
Sensación frio: -3°C
Rocío: 0°C
Humedad: 81%
Barómetro: 1008 hPa
Clouds: Few Clouds
Visibility: 10 km
Cloud details: Few Clouds 610 m
2024/02/23 19:30 LEVD 231930Z 27018KT 9999 FEW020 03/00 Q1008
LESA - Salamanca (civ/M, Spain
Distance from station: ONO 349km
Actualización: Fri, 23-Feb-2024 8:30pm CET
Few Clouds
Few Clouds
 Viento del O
Viento: O 24 km/h
Temperatura: 4°C
Sensación frio: -1°C
Rocío: 1°C
Humedad: 81%
Barómetro: 1011 hPa
Clouds: Few Clouds
Visibility: 10 km
Cloud details: Few Clouds 975 m
2024/02/23 19:30 LESA 231930Z AUTO 28013KT 9999 FEW032 04/01 Q1011
 
LEXJ - Santander/Paraya, Spain
Distance from station: NNO 247km
Actualización: Fri, 23-Feb-2024 8:30pm CET
Parcialmente nuboso
Parcialmente nuboso
 Viento del OSO
Viento: OSO 24 km/h
Temperatura: 7°C
Sensación frio: 3°C
Rocío: 5°C
Humedad: 87%
Barómetro: 1006 hPa
Clouds: Parcialmente nuboso
Visibility: 10 km
Cloud details: Few Clouds 1158 m
Parcialmente nuboso 1524 m
2024/02/23 19:30 LEXJ 231930Z 25013KT 9999 FEW038 SCT050 07/05 Q1006
LEAS - Asturias/Aviles, Spain
Distance from station: NO 214km
Actualización: Fri, 23-Feb-2024 8:30pm CET
Lluvia débil, Showers, Nearby thunderstorm, Muy nuboso
Lluvia débil, Showers, Nearby thunderstorm, Muy nuboso
 Viento del OSO
Viento: OSO 20 km/h
Temperatura: 6°C
Sensación frio: 2°C
Rocío: 5°C
Humedad: 93%
Barómetro: 1007 hPa
Resumen: Lluvia débil, Showers, Nearby thunderstorm
Clouds: Muy nuboso
Visibility: 10 km
Cloud details: Parcialmente nuboso 457 m
Parcialmente nuboso 1097 m
Few Clouds 1219 m
Muy nuboso 1768 m
2024/02/23 19:30 LEAS 231930Z 25011KT 230V290 9999 -SHRA VCTS SCT015 SCT036TCU FEW040CB BKN058 06/05 Q1007 TEMPO 3000 SHRA
 
LECO - La Coruna/Alvedr, Spain
Distance from station: ONO 222km
Actualización: Fri, 23-Feb-2024 8:30pm CET
Parcialmente nuboso
Parcialmente nuboso
 Viento del ONO
Viento: ONO 33 km/h, Racha: 59 km/h
Temperatura: 10°C
Sensación frio: 6°C
Rocío: 3°C
Humedad: 62%
Barómetro: 1009 hPa
Clouds: Parcialmente nuboso
Visibility: 10 km
Cloud details: Parcialmente nuboso 1219 m
2024/02/23 19:30 LECO 231930Z 30018G32KT 260V340 9999 SCT040 10/03 Q1009 TEMPO 3000 SHRA SCT030TCU
LEVX - Vigo/Peinador, Spain
Distance from station: O 214km
Actualización: Fri, 23-Feb-2024 8:30pm CET
Lluvia débil, Showers, Muy nuboso
Lluvia débil, Showers, Muy nuboso
 Viento del varies
Viento: varies 6 km/h
Temperatura: 7°C
Rocío: 5°C
Humedad: 87%
Barómetro: 1012 hPa
Resumen: Lluvia débil, Showers
Clouds: Muy nuboso
Visibility: 10 km
Cloud details: Few Clouds 335 m
Few Clouds 732 m
Muy nuboso 853 m
2024/02/23 19:30 LEVX 231930Z VRB03KT 9999 -SHRA FEW011 FEW024CB BKN028 07/05 Q1012 RESHRA TEMPO 3000 SHRA